Time;durP1;ratioP1;P1;durP2;ratioP2;P2;SDS_P1;SDS_P2;PMS_P1;PMS_P2;Temp;Humidity;BMP_temperature;BMP_pressure;BME280_temperature;BME280_humidity;BME280_pressure;Samples;Min_cycle;Max_cycle;Signal;HPM_P1;HPM_P2
2022/06/14 00:00:53;;;;;;;9.32;1.98;;;11.70;99.90;;;;;;5066913;27;37525;-76
2022/06/14 00:03:22;;;;;;;5.47;1.58;;;11.70;99.90;;;;;;5062177;27;40409;-76
2022/06/14 00:05:49;;;;;;;4.85;1.25;;;11.60;99.90;;;;;;5071014;27;38322;-76
2022/06/14 00:08:16;;;;;;;8.27;1.75;;;11.60;99.90;;;;;;5060290;27;39532;-76
2022/06/14 00:10:42;;;;;;;9.65;1.90;;;11.60;99.90;;;;;;5064879;28;38820;-74
2022/06/14 00:13:10;;;;;;;7.03;1.75;;;11.60;99.90;;;;;;5067885;27;39405;-75
2022/06/14 00:15:36;;;;;;;7.00;1.65;;;11.60;99.90;;;;;;5060389;27;38873;-75
2022/06/14 00:18:03;;;;;;;8.65;2.00;;;11.60;99.90;;;;;;5056653;27;38957;-75
2022/06/14 00:20:29;;;;;;;5.93;1.77;;;11.50;99.90;;;;;;5083474;27;36162;-76
2022/06/14 00:22:55;;;;;;;5.40;1.40;;;11.50;99.90;;;;;;5076893;28;40036;-75
2022/06/14 00:25:36;;;;;;;5.35;1.70;;;11.40;99.90;;;;;;5075944;27;39137;-75
2022/06/14 00:28:04;;;;;;;6.07;1.60;;;11.40;99.90;;;;;;5062597;27;38002;-76
2022/06/14 00:30:31;;;;;;;6.45;2.60;;;11.50;99.90;;;;;;5082437;27;46881;-76
2022/06/14 00:32:57;;;;;;;6.18;1.70;;;11.40;99.90;;;;;;5064488;27;38348;-76
2022/06/14 00:35:23;;;;;;;4.95;1.45;;;11.40;99.90;;;;;;5068699;27;38610;-76
2022/06/14 00:37:49;;;;;;;9.20;1.80;;;11.40;99.90;;;;;;5064040;27;38291;-76
2022/06/14 00:40:19;;;;;;;5.53;1.40;;;11.40;99.90;;;;;;5050578;28;38131;-76
2022/06/14 00:42:45;;;;;;;5.95;1.63;;;11.40;99.90;;;;;;5051836;28;40683;-75
2022/06/14 00:45:11;;;;;;;5.95;2.00;;;11.30;99.90;;;;;;5051182;28;39463;-76
2022/06/14 00:47:47;;;;;;;3.67;1.50;;;11.30;99.90;;;;;;5050604;28;39694;-76
2022/06/14 00:50:17;;;;;;;3.00;1.55;;;11.30;99.90;;;;;;5056195;28;38202;-76
2022/06/14 00:52:51;;;;;;;6.55;1.75;;;11.20;99.90;;;;;;5077174;27;38979;-75
2022/06/14 00:55:25;;;;;;;5.22;1.95;;;11.20;99.90;;;;;;5092374;27;39603;-76
2022/06/14 00:58:01;;;;;;;4.03;1.30;;;11.10;99.90;;;;;;5078958;27;38690;-75
2022/06/14 01:00:31;;;;;;;6.47;1.50;;;11.10;99.90;;;;;;5088851;27;37546;-75
2022/06/14 01:03:02;;;;;;;3.97;1.45;;;11.10;99.90;;;;;;5061378;27;39721;-76
2022/06/14 01:08:27;;;;;;;6.13;1.65;;;11.00;99.90;;;;;;5073747;27;48014;-76
2022/06/14 01:10:53;;;;;;;4.93;1.33;;;11.00;99.90;;;;;;5072140;27;36822;-76
2022/06/14 01:13:20;;;;;;;3.95;1.42;;;11.00;99.90;;;;;;5059504;28;38688;-75
2022/06/14 01:15:50;;;;;;;5.00;1.98;;;11.00;99.90;;;;;;5055278;28;38372;-76
2022/06/14 01:18:17;;;;;;;5.68;1.73;;;11.00;99.90;;;;;;5058943;28;38187;-75
2022/06/14 01:20:43;;;;;;;5.78;1.60;;;11.00;99.90;;;;;;5079853;28;39108;-76
2022/06/14 01:23:14;;;;;;;3.47;1.30;;;10.90;99.90;;;;;;5078093;27;39866;-76
2022/06/14 01:25:45;;;;;;;8.43;1.63;;;11.00;99.90;;;;;;5064135;28;38981;-76
2022/06/14 01:28:13;;;;;;;6.47;1.83;;;10.90;99.90;;;;;;5077013;27;38118;-76
2022/06/14 01:30:47;;;;;;;4.82;1.45;;;10.90;99.90;;;;;;5071285;27;37880;-76
2022/06/14 01:33:24;;;;;;;4.95;1.52;;;10.80;99.90;;;;;;5054553;28;39963;-76
2022/06/14 01:36:05;;;;;;;5.60;1.52;;;10.80;99.90;;;;;;5054664;28;38759;-76
2022/06/14 01:38:32;;;;;;;4.47;1.35;;;10.80;99.90;;;;;;5071197;28;47369;-76
2022/06/14 01:41:19;;;;;;;3.72;1.58;;;10.80;99.90;;;;;;5079320;28;37430;-76
2022/06/14 01:44:06;;;;;;;5.40;2.05;;;10.80;99.90;;;;;;5070506;28;47953;-76
2022/06/14 01:46:42;;;;;;;7.00;1.90;;;10.90;99.90;;;;;;5073966;28;46203;-76
2022/06/14 01:52:39;;;;;;;6.07;1.52;;;10.90;99.90;;;;;;5073351;27;37555;-75
2022/06/14 01:55:18;;;;;;;6.43;1.95;;;10.80;99.90;;;;;;5077641;27;48807;-75
2022/06/14 01:57:53;;;;;;;5.65;1.50;;;10.80;99.90;;;;;;5078626;27;37427;-76
2022/06/14 02:00:26;;;;;;;3.80;1.30;;;10.90;99.90;;;;;;5050566;27;41820;-76
2022/06/14 02:06:25;;;;;;;4.85;1.58;;;10.80;99.90;;;;;;5076838;27;50474;-75
2022/06/14 02:09:09;;;;;;;2.60;1.48;;;10.70;99.90;;;;;;5077882;27;38515;-75
2022/06/14 02:11:36;;;;;;;1.98;1.33;;;10.70;99.90;;;;;;5090435;27;47139;-77
2022/06/14 02:14:08;;;;;;;5.47;1.50;;;10.70;99.90;;;;;;5073148;28;39179;-77
2022/06/14 02:16:47;;;;;;;3.42;1.58;;;10.70;99.90;;;;;;5062436;28;37154;-77
2022/06/14 02:19:42;;;;;;;5.55;1.55;;;10.70;99.90;;;;;;5079925;27;37162;-76
2022/06/14 02:22:13;;;;;;;6.57;1.60;;;10.60;99.90;;;;;;5068208;27;38011;-76
2022/06/14 02:24:53;;;;;;;4.33;1.50;;;10.60;99.90;;;;;;5056790;28;36926;-76
2022/06/14 02:27:27;;;;;;;5.00;1.67;;;10.50;99.90;;;;;;5054932;28;38212;-76
2022/06/14 02:30:03;;;;;;;5.03;1.67;;;10.50;99.90;;;;;;5071548;27;37758;-76
2022/06/14 02:32:42;;;;;;;8.95;1.95;;;10.50;99.90;;;;;;5075564;27;48500;-76
2022/06/14 02:35:36;;;;;;;4.63;1.70;;;10.50;99.90;;;;;;5075390;27;37918;-75
2022/06/14 02:38:12;;;;;;;8.25;2.13;;;10.50;99.90;;;;;;5060777;27;39074;-76
2022/06/14 02:41:01;;;;;;;5.10;1.50;;;10.50;99.90;;;;;;5071087;27;48780;-76
2022/06/14 02:43:45;;;;;;;6.00;1.58;;;10.50;99.90;;;;;;5067113;27;48997;-76
2022/06/14 02:46:22;;;;;;;7.47;1.75;;;10.50;99.90;;;;;;5067754;27;38191;-76
2022/06/14 02:49:02;;;;;;;5.38;1.80;;;10.50;99.90;;;;;;5054255;28;39770;-76
2022/06/14 02:51:36;;;;;;;4.03;1.55;;;10.40;99.90;;;;;;5056283;27;48667;-76
2022/06/14 02:54:15;;;;;;;5.28;1.50;;;10.40;99.90;;;;;;5071809;27;37861;-76
2022/06/14 02:56:52;;;;;;;3.70;1.60;;;10.40;99.90;;;;;;5067772;28;38541;-76
2022/06/14 02:59:28;;;;;;;4.25;1.30;;;10.40;99.90;;;;;;5065673;27;39481;-76
2022/06/14 03:02:00;;;;;;;4.95;1.58;;;10.40;99.90;;;;;;5051126;28;38521;-76
2022/06/14 03:04:38;;;;;;;5.90;1.98;;;10.30;99.90;;;;;;5065181;27;39245;-76
2022/06/14 03:07:14;;;;;;;4.13;2.53;;;10.30;99.90;;;;;;5051740;28;38221;-76
2022/06/14 03:09:42;;;;;;;3.55;1.63;;;10.30;99.90;;;;;;5070044;28;39569;-76
2022/06/14 03:12:34;;;;;;;2.60;1.55;;;10.30;99.90;;;;;;5075252;27;39032;-77
2022/06/14 03:15:08;;;;;;;6.97;1.77;;;10.30;99.90;;;;;;5069191;27;39059;-76
2022/06/14 03:18:04;;;;;;;4.10;1.63;;;10.20;99.90;;;;;;5092625;27;47244;-76
2022/06/14 03:20:42;;;;;;;5.32;1.52;;;10.20;99.90;;;;;;5071915;28;47022;-76
2022/06/14 03:23:15;;;;;;;4.45;1.83;;;10.20;99.90;;;;;;5057043;27;38527;-76
2022/06/14 03:25:59;;;;;;;;;;;10.20;99.90;;;;;;5066861;27;38884;-76
2022/06/14 03:28:46;;;;;;;5.65;2.03;;;10.20;99.90;;;;;;5070247;28;39077;-77
2022/06/14 03:31:23;;;;;;;3.40;1.88;;;10.30;99.90;;;;;;5060073;27;38168;-76
2022/06/14 03:34:08;;;;;;;4.22;1.80;;;10.20;99.90;;;;;;5077663;27;39088;-76
2022/06/14 03:36:34;;;;;;;6.55;1.60;;;10.20;99.90;;;;;;5077843;27;47475;-76
2022/06/14 03:39:12;;;;;;;4.35;1.40;;;10.20;99.90;;;;;;5052839;27;38959;-77
2022/06/14 03:41:43;;;;;;;5.90;1.60;;;10.10;99.90;;;;;;5066623;28;48218;-78
2022/06/14 03:44:11;;;;;;;4.82;1.60;;;10.20;99.90;;;;;;5105709;27;39922;-77
2022/06/14 03:46:59;;;;;;;4.00;1.70;;;10.20;99.90;;;;;;5076217;27;38546;-76
2022/06/14 03:49:26;;;;;;;5.90;1.80;;;10.30;99.90;;;;;;5052234;27;37864;-77
2022/06/14 03:52:15;;;;;;;7.18;2.13;;;10.30;99.90;;;;;;5063757;28;40052;-77
2022/06/14 03:55:00;;;;;;;4.75;1.90;;;10.20;99.90;;;;;;5070007;28;47077;-76
2022/06/14 03:57:45;;;;;;;5.22;1.50;;;10.30;99.90;;;;;;5064713;28;47303;-76
2022/06/14 04:00:37;;;;;;;3.70;1.60;;;10.30;99.90;;;;;;5054575;28;39003;-78
2022/06/14 04:03:19;;;;;;;6.32;2.00;;;10.30;99.90;;;;;;5054732;27;39178;-77
2022/06/14 04:06:09;;;;;;;3.20;1.40;;;10.30;99.90;;;;;;5065009;28;39402;-77
2022/06/14 04:08:38;;;;;;;4.53;2.00;;;10.30;99.90;;;;;;5067957;27;48210;-77
2022/06/14 04:11:30;;;;;;;4.60;1.65;;;10.30;99.90;;;;;;5056740;27;36289;-76
2022/06/14 04:14:14;;;;;;;4.07;1.90;;;10.30;99.90;;;;;;5061606;27;38951;-77
2022/06/14 04:16:46;;;;;;;3.05;1.48;;;10.30;99.90;;;;;;5085265;27;47891;-77
2022/06/14 04:19:53;;;;;;;2.83;1.50;;;10.30;99.90;;;;;;5055069;28;39095;-77
2022/06/14 04:22:58;;;;;;;3.85;1.67;;;10.40;99.90;;;;;;5076829;27;35839;-76
2022/06/14 04:25:35;;;;;;;3.45;1.60;;;10.40;99.90;;;;;;5029954;28;39272;-76
2022/06/14 04:28:14;;;;;;;3.05;1.65;;;10.50;99.90;;;;;;5048908;28;41279;-77
2022/06/14 04:31:12;;;;;;;3.17;1.48;;;10.60;99.90;;;;;;5067990;27;48881;-76
2022/06/14 04:33:51;;;;;;;6.90;1.92;;;10.70;99.90;;;;;;5069725;28;47274;-76
2022/06/14 04:36:40;;;;;;;4.85;2.00;;;10.90;99.90;;;;;;5070542;27;39270;-76
2022/06/14 04:39:22;;;;;;;7.43;1.73;;;11.00;99.90;;;;;;5079668;27;38638;-76
2022/06/14 04:41:51;;;;;;;5.07;1.95;;;11.10;99.90;;;;;;5072985;27;38365;-76
2022/06/14 04:44:31;;;;;;;3.03;1.70;;;11.20;99.90;;;;;;5083241;27;38994;-77
2022/06/14 04:47:12;;;;;;;5.20;1.75;;;11.20;99.90;;;;;;5093812;27;40641;-76
2022/06/14 04:49:47;;;;;;;6.50;2.15;;;11.30;99.90;;;;;;5065160;28;47173;-76
2022/06/14 04:52:24;;;;;;;3.42;1.88;;;11.40;99.90;;;;;;5064833;27;38704;-77
2022/06/14 04:55:12;;;;;;;4.38;1.83;;;11.50;99.90;;;;;;5078171;27;37176;-76
2022/06/14 04:57:51;;;;;;;6.90;2.13;;;11.60;99.90;;;;;;5069305;28;47082;-77
2022/06/14 05:00:27;;;;;;;5.40;2.00;;;11.80;99.90;;;;;;5090581;27;39816;-74
2022/06/14 05:03:10;;;;;;;6.38;1.65;;;12.10;99.90;;;;;;5104116;27;38431;-76
2022/06/14 05:05:43;;;;;;;5.45;2.05;;;12.50;99.90;;;;;;5082935;27;47468;-77
2022/06/14 05:08:15;;;;;;;5.18;1.67;;;12.90;99.90;;;;;;5074919;27;39341;-78
2022/06/14 05:11:21;;;;;;;4.30;1.70;;;13.30;99.90;;;;;;5053039;28;39170;-77
2022/06/14 05:14:12;;;;;;;3.92;1.73;;;13.80;99.90;;;;;;5023830;28;48747;-77
2022/06/14 05:16:49;;;;;;;3.67;1.73;;;14.20;99.90;;;;;;5060339;27;48368;-78
2022/06/14 05:19:40;;;;;;;2.17;1.35;;;14.50;99.90;;;;;;5073762;27;39109;-77
2022/06/14 05:22:20;;;;;;;5.63;1.23;;;14.90;99.90;;;;;;5066086;27;40001;-77
2022/06/14 05:24:46;;;;;;;6.13;1.75;;;15.30;99.90;;;;;;5046588;28;38813;-77
2022/06/14 05:27:31;;;;;;;3.17;1.40;;;15.50;99.90;;;;;;5045364;28;36860;-77
2022/06/14 05:30:01;;;;;;;3.60;1.48;;;15.70;99.90;;;;;;5052117;28;37893;-77
2022/06/14 05:32:48;;;;;;;6.63;1.65;;;15.80;99.90;;;;;;5068793;27;40754;-78
2022/06/14 05:35:25;;;;;;;4.43;1.15;;;15.90;99.90;;;;;;5067398;27;38731;-77
2022/06/14 05:38:03;;;;;;;6.43;1.25;;;15.80;99.90;;;;;;5073288;27;37241;-77
2022/06/14 05:40:31;;;;;;;2.50;1.00;;;16.10;99.90;;;;;;5089383;27;46870;-78
2022/06/14 05:43:33;;;;;;;2.08;0.82;;;16.00;99.90;;;;;;5054531;27;38711;-78
2022/06/14 05:46:10;;;;;;;2.95;0.90;;;16.30;99.90;;;;;;5050553;28;46841;-77
2022/06/14 05:48:50;;;;;;;4.35;0.98;;;16.60;99.90;;;;;;5057670;28;46681;-77
2022/06/14 05:51:21;;;;;;;3.85;1.25;;;16.50;99.90;;;;;;5053060;28;37104;-78
2022/06/14 05:54:12;;;;;;;2.95;1.23;;;16.40;99.90;;;;;;5057539;28;39513;-78
2022/06/14 05:56:42;;;;;;;5.03;1.10;;;16.70;99.90;;;;;;5082830;28;47591;-78
2022/06/14 05:59:15;;;;;;;4.18;1.30;;;16.80;99.90;;;;;;5082402;27;37921;-78
2022/06/14 06:01:47;;;;;;;5.30;1.25;;;16.50;99.90;;;;;;5081127;28;40197;-78
2022/06/14 06:04:13;;;;;;;7.40;1.50;;;16.50;99.90;;;;;;5069512;27;39031;-78
2022/06/14 06:06:46;;;;;;;3.67;1.02;;;16.20;99.90;;;;;;5082261;27;38019;-78
2022/06/14 06:09:21;;;;;;;5.15;1.27;;;16.40;99.90;;;;;;5077450;27;37369;-78
2022/06/14 06:11:53;;;;;;;5.18;1.23;;;16.70;99.90;;;;;;5056147;28;40435;-78
2022/06/14 06:14:33;;;;;;;4.63;1.48;;;16.80;99.90;;;;;;5071785;28;39571;-78
2022/06/14 06:17:25;;;;;;;4.18;1.00;;;17.10;99.90;;;;;;5055982;28;38363;-78
2022/06/14 06:20:22;;;;;;;2.58;1.25;;;17.40;99.90;;;;;;5063119;28;47117;-78
2022/06/14 06:23:18;;;;;;;3.20;1.10;;;17.40;99.90;;;;;;5064014;28;48422;-79
2022/06/14 06:25:54;;;;;;;4.90;1.20;;;17.40;99.90;;;;;;5064694;28;48540;-77
2022/06/14 06:28:38;;;;;;;5.57;1.92;;;17.40;99.90;;;;;;5102412;27;38379;-78
2022/06/14 06:31:26;;;;;;;7.70;1.70;;;17.40;99.90;;;;;;5057305;28;37785;-77
2022/06/14 06:33:55;;;;;;;4.78;1.90;;;17.20;99.90;;;;;;5078088;27;38780;-78
2022/06/14 06:36:39;;;;;;;3.25;1.45;;;17.50;99.90;;;;;;5077742;27;40105;-79
2022/06/14 06:39:35;;;;;;;6.95;1.95;;;17.70;99.90;;;;;;5068640;27;37767;-78
2022/06/14 06:42:19;;;;;;;7.82;1.60;;;17.60;99.90;;;;;;5074661;27;38806;-77
2022/06/14 06:44:54;;;;;;;4.97;1.58;;;17.90;99.90;;;;;;5080142;27;39866;-77
2022/06/14 06:47:40;;;;;;;4.20;1.35;;;17.50;99.90;;;;;;5067020;27;39239;-77
2022/06/14 06:50:06;;;;;;;3.67;1.20;;;17.10;99.90;;;;;;5057722;28;37922;-79
2022/06/14 06:52:41;;;;;;;3.85;1.27;;;17.10;99.90;;;;;;5099372;28;38092;-78
2022/06/14 06:55:14;;;;;;;4.82;1.20;;;17.40;99.90;;;;;;5077896;28;37608;-78
2022/06/14 06:57:41;;;;;;;;;;;17.50;99.90;;;;;;5088457;28;40805;-79
2022/06/14 07:00:11;;;;;;;3.20;1.00;;;17.40;99.90;;;;;;5093197;27;41596;-78
2022/06/14 07:02:49;;;;;;;5.18;1.58;;;17.40;99.90;;;;;;5090213;27;36375;-78
2022/06/14 07:05:17;;;;;;;4.93;1.33;;;17.60;99.90;;;;;;5075301;27;37585;-78
2022/06/14 07:08:07;;;;;;;4.65;0.90;;;17.70;99.90;;;;;;5098176;27;40461;-78
2022/06/14 07:10:42;;;;;;;5.18;1.00;;;18.00;99.90;;;;;;5083586;27;48388;-78
2022/06/14 07:13:18;;;;;;;4.35;0.93;;;18.00;99.90;;;;;;5077404;27;38593;-78
2022/06/14 07:16:09;;;;;;;3.38;0.90;;;18.50;99.90;;;;;;5077227;27;39132;-77
2022/06/14 07:18:41;;;;;;;2.85;0.90;;;18.90;99.90;;;;;;5073659;27;48734;-76
2022/06/14 07:21:15;;;;;;;4.07;0.70;;;19.30;99.90;;;;;;5095569;27;38045;-76
2022/06/14 07:23:54;;;;;;;3.42;0.85;;;19.70;99.90;;;;;;5084169;27;39044;-76
2022/06/14 07:26:29;;;;;;;2.88;1.02;;;19.20;99.90;;;;;;5080364;27;40894;-76
2022/06/14 07:29:26;;;;;;;4.53;1.00;;;18.70;99.90;;;;;;5078450;28;39872;-77
2022/06/14 07:32:02;;;;;;;2.38;0.68;;;18.40;99.90;;;;;;5074890;28;47683;-77
2022/06/14 07:34:28;;;;;;;2.20;0.80;;;18.70;99.90;;;;;;5082400;28;47225;-77
2022/06/14 07:37:10;;;;;;;1.63;0.60;;;18.10;99.90;;;;;;5087136;27;38777;-77
2022/06/14 07:39:45;;;;;;;2.55;0.60;;;18.30;99.90;;;;;;5072031;27;48371;-77
2022/06/14 07:42:14;;;;;;;1.08;0.60;;;18.90;99.90;;;;;;5078897;27;37804;-77
2022/06/14 07:44:46;;;;;;;1.85;0.70;;;19.60;99.90;;;;;;5087303;27;37814;-77
2022/06/14 07:47:22;;;;;;;3.72;0.70;;;20.00;99.90;;;;;;5108849;27;41151;-77
2022/06/14 07:49:58;;;;;;;2.28;0.70;;;20.20;99.90;;;;;;5066688;28;39177;-77
2022/06/14 07:52:42;;;;;;;2.90;0.50;;;20.00;99.90;;;;;;5067229;28;38260;-78
2022/06/14 07:55:17;;;;;;;3.15;0.90;;;20.40;99.90;;;;;;5084204;27;37554;-77
2022/06/14 07:57:46;;;;;;;2.25;0.85;;;19.30;99.90;;;;;;5074976;27;40136;-77
2022/06/14 08:03:11;;;;;;;3.60;1.10;;;19.90;99.90;;;;;;5084713;27;40025;-76
2022/06/14 08:05:41;;;;;;;2.80;0.77;;;20.20;99.90;;;;;;5081526;27;48876;-78
2022/06/14 08:08:13;;;;;;;2.10;0.68;;;20.60;99.90;;;;;;5081418;27;38635;-77
2022/06/14 08:10:42;;;;;;;;;;;20.70;99.90;;;;;;5087843;27;38596;-77
2022/06/14 08:13:12;;;;;;;3.38;1.00;;;20.70;99.90;;;;;;5096949;27;37110;-78
2022/06/14 08:15:43;;;;;;;1.60;0.60;;;20.70;99.90;;;;;;5071819;27;37648;-78
2022/06/14 08:18:35;;;;;;;3.58;1.63;;;21.00;99.90;;;;;;5062904;27;39886;-79
2022/06/14 08:21:08;;;;;;;2.75;0.70;;;21.00;99.90;;;;;;5098133;27;40027;-78
2022/06/14 08:23:47;;;;;;;3.05;0.85;;;20.90;99.90;;;;;;5080497;28;47464;-78
2022/06/14 08:26:46;;;;;;;3.30;1.38;;;20.50;99.90;;;;;;5088125;27;38978;-78
2022/06/14 08:29:22;;;;;;;2.03;1.17;;;20.90;99.90;;;;;;5054795;27;39603;-78
2022/06/14 08:32:11;;;;;;;3.00;1.13;;;21.30;99.90;;;;;;5086734;27;38490;-78
2022/06/14 08:34:47;;;;;;;2.08;0.90;;;21.40;99.90;;;;;;5077474;27;47271;-79
2022/06/14 08:37:25;;;;;;;4.70;1.33;;;21.60;99.90;;;;;;5089718;27;38213;-78
2022/06/14 08:39:59;;;;;;;3.13;0.73;;;21.30;99.90;;;;;;5086175;27;40637;-79
2022/06/14 08:42:32;;;;;;;3.13;1.23;;;21.80;99.90;;;;;;5088333;27;37995;-78
2022/06/14 08:45:05;;;;;;;4.25;1.00;;;22.20;99.90;;;;;;5082419;27;39227;-79
2022/06/14 08:47:46;;;;;;;3.28;1.10;;;22.00;99.90;;;;;;5086799;27;47751;-78
2022/06/14 08:50:34;;;;;;;3.83;0.90;;;21.20;99.90;;;;;;5075388;27;39599;-78
2022/06/14 08:53:39;;;;;;;3.10;1.20;;;20.90;99.90;;;;;;5087914;27;39832;-79
2022/06/14 08:56:32;;;;;;;1.58;0.80;;;20.70;99.90;;;;;;5061592;28;47130;-78
2022/06/14 08:59:22;;;;;;;3.55;1.10;;;21.50;99.90;;;;;;5084178;27;39100;-78
2022/06/14 09:02:07;;;;;;;2.60;0.85;;;21.60;99.90;;;;;;5083119;27;48420;-78
2022/06/14 09:05:19;;;;;;;3.72;0.98;;;21.60;99.90;;;;;;5071539;27;48655;-78
2022/06/14 09:08:29;;;;;;;3.37;0.83;;;21.60;99.90;;;;;;5113841;27;47294;-78
2022/06/14 09:11:20;;;;;;;4.20;1.08;;;21.70;99.90;;;;;;5085495;27;49349;-78
2022/06/14 09:14:08;;;;;;;5.65;1.40;;;22.40;99.90;;;;;;5075259;27;48678;-78
2022/06/14 09:17:01;;;;;;;6.30;1.15;;;21.10;99.90;;;;;;5081903;27;48736;-78
2022/06/14 09:19:37;;;;;;;2.40;0.85;;;20.00;99.90;;;;;;5078607;28;47339;-78
2022/06/14 09:22:29;;;;;;;4.28;1.27;;;20.60;99.90;;;;;;5087610;27;36028;-78
2022/06/14 09:24:57;;;;;;;3.42;1.40;;;21.10;99.90;;;;;;5066290;28;37779;-78
2022/06/14 09:27:29;;;;;;;2.97;1.00;;;20.70;99.90;;;;;;5064911;27;39161;-78
2022/06/14 09:30:23;;;;;;;3.70;1.48;;;20.80;99.90;;;;;;5068518;28;36930;-78
2022/06/14 09:33:10;;;;;;;3.35;1.02;;;20.60;99.90;;;;;;5059758;27;48196;-78
2022/06/14 09:35:54;;;;;;;2.30;1.00;;;20.10;99.90;;;;;;5065964;28;47320;-78
2022/06/14 09:38:30;;;;;;;2.22;1.15;;;20.30;99.90;;;;;;5074993;27;39734;-79
2022/06/14 09:41:16;;;;;;;2.35;0.90;;;21.40;99.90;;;;;;5063497;28;38367;-78
2022/06/14 09:44:07;;;;;;;3.47;1.30;;;22.30;99.90;;;;;;5068040;28;48121;-78
2022/06/14 09:47:13;;;;;;;2.05;0.80;;;22.60;99.90;;;;;;5062614;28;48234;-79
2022/06/14 09:50:07;;;;;;;1.95;1.00;;;23.40;99.90;;;;;;5046256;28;47305;-79
2022/06/14 09:52:36;;;;;;;4.05;1.70;;;24.00;99.90;;;;;;5065541;28;46069;-79
2022/06/14 09:55:24;;;;;;;3.97;1.50;;;23.10;99.90;;;;;;5076004;27;37446;-78
2022/06/14 09:58:22;;;;;;;4.40;1.63;;;22.80;99.90;;;;;;5055023;28;41200;-79
2022/06/14 10:01:11;;;;;;;3.00;1.30;;;23.10;99.90;;;;;;5051063;28;47500;-77
2022/06/14 10:04:01;;;;;;;1.80;1.02;;;23.80;99.90;;;;;;5062473;28;47241;-77
2022/06/14 10:06:48;;;;;;;4.63;1.30;;;24.50;99.90;;;;;;5064306;27;49070;-76
2022/06/14 10:09:17;;;;;;;2.55;1.20;;;23.30;99.90;;;;;;5058814;28;39379;-83
2022/06/14 10:12:11;;;;;;;3.83;1.40;;;22.20;99.90;;;;;;5063812;27;38609;-78
2022/06/14 10:15:01;;;;;;;3.03;1.50;;;21.80;99.90;;;;;;5066884;27;48864;-78
2022/06/14 10:17:37;;;;;;;5.93;1.75;;;21.60;99.90;;;;;;5066825;27;47445;-79
2022/06/14 10:20:16;;;;;;;2.58;1.08;;;22.60;99.90;;;;;;5065022;27;38839;-78
2022/06/14 10:23:17;;;;;;;4.82;1.50;;;22.60;99.90;;;;;;5064288;28;38696;-79
2022/06/14 10:29:20;;;;;;;4.38;1.63;;;23.30;99.90;;;;;;5068204;27;48953;-78
2022/06/14 10:31:58;;;;;;;3.72;1.70;;;22.70;99.90;;;;;;5070185;27;48807;-80
2022/06/14 10:34:35;;;;;;;4.38;1.70;;;22.30;99.90;;;;;;5059915;27;40110;-79
2022/06/14 10:37:33;;;;;;;6.05;1.60;;;22.60;99.90;;;;;;5055071;27;37637;-78
2022/06/14 10:40:05;;;;;;;4.00;1.27;;;22.70;99.90;;;;;;5061534;28;36301;-78
2022/06/14 10:43:11;;;;;;;2.55;1.20;;;22.60;99.90;;;;;;5066642;27;48415;-79
2022/06/14 10:46:00;;;;;;;4.35;1.25;;;23.10;99.90;;;;;;5065553;28;48932;-80
2022/06/14 10:49:00;;;;;;;3.30;1.55;;;23.60;99.90;;;;;;5066372;27;47210;-79
2022/06/14 10:51:38;;;;;;;3.67;1.48;;;23.90;99.90;;;;;;5060511;28;36342;-78
2022/06/14 10:54:47;;;;;;;3.13;1.95;;;24.10;99.90;;;;;;5067326;28;38768;-79
2022/06/14 10:57:16;;;;;;;3.78;1.70;;;23.90;99.90;;;;;;5062620;27;38670;-79
2022/06/14 10:59:57;;;;;;;5.03;1.50;;;23.40;99.90;;;;;;5065988;28;38388;-79
2022/06/14 11:02:42;;;;;;;4.37;1.83;;;23.00;99.90;;;;;;5062325;27;38262;-79
2022/06/14 11:05:30;;;;;;;2.58;1.45;;;22.90;99.90;;;;;;5065083;27;39838;-79
2022/06/14 11:08:06;;;;;;;4.80;1.75;;;23.40;99.90;;;;;;5061428;28;38561;-79
2022/06/14 11:10:46;;;;;;;3.58;1.60;;;21.80;99.90;;;;;;5070719;27;48588;-79
2022/06/14 11:13:37;;;;;;;2.78;1.27;;;21.70;99.90;;;;;;5063472;28;40222;-79
2022/06/14 11:16:28;;;;;;;6.40;1.70;;;21.90;99.90;;;;;;5066005;27;40112;-78
2022/06/14 11:22:31;;;;;;;3.47;1.67;;;21.60;99.90;;;;;;5056357;27;48562;-78
2022/06/14 11:25:21;;;;;;;5.32;2.40;;;21.50;99.90;;;;;;5064316;27;37466;-79
2022/06/14 11:28:14;;;;;;;5.13;2.05;;;21.60;99.90;;;;;;5061302;28;47472;-78
2022/06/14 11:30:52;;;;;;;5.55;2.40;;;21.80;99.90;;;;;;5060987;28;48459;-78
2022/06/14 11:33:45;;;;;;;4.22;1.98;;;21.80;99.90;;;;;;5054095;27;40240;-78
2022/06/14 11:36:24;;;;;;;5.32;2.30;;;22.20;99.90;;;;;;5061253;28;37346;-78
2022/06/14 11:39:13;;;;;;;5.50;2.15;;;23.10;99.90;;;;;;5060384;28;39696;-79
2022/06/14 11:41:44;;;;;;;4.93;2.25;;;23.40;99.90;;;;;;5064825;27;48971;-78
2022/06/14 11:44:25;;;;;;;5.55;2.00;;;23.30;99.90;;;;;;5068144;27;39680;-78
2022/06/14 11:47:16;;;;;;;4.90;1.80;;;23.30;99.90;;;;;;5078643;28;37909;-78
2022/06/14 11:49:47;;;;;;;4.13;1.90;;;23.30;99.90;;;;;;5068340;27;49930;-78
2022/06/14 11:52:51;;;;;;;4.70;1.92;;;23.00;99.90;;;;;;5064358;27;39013;-78
2022/06/14 11:55:36;;;;;;;2.97;1.65;;;22.30;99.90;;;;;;5067607;28;39883;-77
2022/06/14 11:58:29;;;;;;;3.67;1.98;;;22.20;99.90;;;;;;5078172;27;37205;-78
2022/06/14 12:01:20;;;;;;;3.25;1.73;;;22.90;99.90;;;;;;5077516;27;38612;-78
2022/06/14 12:04:17;;;;;;;3.47;1.70;;;23.10;99.90;;;;;;5083713;28;47416;-78
2022/06/14 12:07:05;;;;;;;3.05;1.90;;;23.20;99.90;;;;;;5081204;28;47481;-78
2022/06/14 12:09:52;;;;;;;7.68;2.15;;;22.20;99.90;;;;;;5054692;28;47484;-77
2022/06/14 12:12:48;;;;;;;4.55;1.90;;;22.10;99.90;;;;;;5059765;27;40986;-78
2022/06/14 12:15:38;;;;;;;4.40;2.00;;;22.00;99.90;;;;;;5060554;27;39453;-77
2022/06/14 12:18:07;;;;;;;4.18;1.70;;;22.00;99.90;;;;;;5069821;27;38599;-78
2022/06/14 12:21:01;;;;;;;4.15;1.88;;;22.40;99.90;;;;;;5071496;28;39041;-78
2022/06/14 12:23:37;;;;;;;5.90;1.90;;;22.70;99.90;;;;;;5067269;28;47502;-77
2022/06/14 12:26:34;;;;;;;2.47;1.65;;;22.20;99.90;;;;;;5060224;27;38481;-78
2022/06/14 12:29:24;;;;;;;5.45;1.58;;;21.90;99.90;;;;;;5057474;28;37545;-77
2022/06/14 12:32:06;;;;;;;5.88;2.00;;;22.00;99.90;;;;;;5079912;27;47371;-77
2022/06/14 12:34:40;;;;;;;4.70;2.00;;;22.20;99.90;;;;;;5077690;27;47696;-77
2022/06/14 12:37:33;;;;;;;5.57;2.00;;;22.30;99.90;;;;;;5107338;27;38276;-78
2022/06/14 12:40:20;;;;;;;6.10;2.30;;;22.10;99.90;;;;;;5081993;27;37757;-78
2022/06/14 12:43:24;;;;;;;8.30;1.77;;;22.30;99.90;;;;;;5062700;28;47231;-78
2022/06/14 12:45:58;;;;;;;4.93;2.10;;;23.20;99.90;;;;;;5080663;27;47263;-78
2022/06/14 12:48:43;;;;;;;5.57;2.15;;;23.80;99.90;;;;;;5082770;27;39183;-78
2022/06/14 12:51:28;;;;;;;4.07;1.98;;;24.20;99.90;;;;;;5067412;27;37678;-79
2022/06/14 12:54:31;;;;;;;5.43;2.15;;;24.20;99.90;;;;;;5081575;27;37975;-78
2022/06/14 12:57:02;;;;;;;5.63;2.92;;;23.20;99.90;;;;;;5076776;28;48458;-76
2022/06/14 12:59:43;;;;;;;4.15;2.20;;;23.20;99.90;;;;;;5115560;27;47236;-76
2022/06/14 13:02:44;;;;;;;4.35;1.92;;;23.30;99.90;;;;;;5068621;27;37896;-75
2022/06/14 13:05:10;;;;;;;5.33;2.10;;;23.40;99.90;;;;;;5044315;28;37327;-76
2022/06/14 13:07:55;;;;;;;6.65;2.22;;;23.10;99.90;;;;;;5068605;27;39554;-75
2022/06/14 13:10:59;;;;;;;3.90;1.95;;;23.10;99.90;;;;;;5065559;27;38986;-75
2022/06/14 13:13:50;;;;;;;3.92;2.13;;;23.50;99.90;;;;;;5067638;27;38687;-77
2022/06/14 13:16:28;;;;;;;2.83;2.15;;;23.50;99.90;;;;;;5070656;27;37793;-76
2022/06/14 13:19:14;;;;;;;3.97;2.17;;;22.90;99.90;;;;;;5067548;27;37986;-76
2022/06/14 13:21:46;;;;;;;2.53;1.75;;;22.90;99.90;;;;;;5078676;28;46363;-76
2022/06/14 13:24:17;;;;;;;5.20;1.98;;;23.90;99.90;;;;;;5079545;27;37689;-75
2022/06/14 13:27:21;;;;;;;4.20;2.05;;;24.00;99.90;;;;;;5075918;27;36969;-75
2022/06/14 13:30:07;;;;;;;3.00;2.00;;;23.90;99.90;;;;;;5080191;28;48238;-76
2022/06/14 13:32:48;;;;;;;6.95;2.30;;;24.30;99.90;;;;;;5073149;28;47325;-76
2022/06/14 13:36:01;;;;;;;6.93;2.50;;;24.40;99.90;;;;;;5072039;27;40835;-75
2022/06/14 13:38:35;;;;;;;5.07;2.83;;;24.10;99.90;;;;;;5067387;28;47566;-75
2022/06/14 13:41:07;;;;;;;3.85;2.20;;;23.50;99.90;;;;;;5095385;27;38985;-75
2022/06/14 13:43:36;;;;;;;2.88;2.10;;;23.80;99.90;;;;;;5078975;27;38837;-76
2022/06/14 13:46:30;;;;;;;4.55;2.60;;;23.80;99.90;;;;;;5086458;27;39003;-76
2022/06/14 13:49:01;;;;;;;4.95;2.45;;;23.90;99.90;;;;;;5058391;28;36838;-75
2022/06/14 13:51:37;;;;;;;3.85;2.20;;;23.80;99.90;;;;;;5084985;27;47523;-75
2022/06/14 13:54:25;;;;;;;4.00;2.08;;;23.50;99.90;;;;;;5063603;28;39194;-75
2022/06/14 13:57:00;;;;;;;3.15;2.00;;;23.50;99.90;;;;;;5057202;28;38504;-75
2022/06/14 13:59:33;;;;;;;2.58;1.90;;;23.80;99.90;;;;;;5078770;27;47335;-76
2022/06/14 14:02:18;;;;;;;4.22;2.22;;;24.00;99.90;;;;;;5078901;28;40726;-75
2022/06/14 14:05:04;;;;;;;3.22;1.98;;;23.70;99.90;;;;;;5063605;27;48453;-77
2022/06/14 14:08:00;;;;;;;4.95;2.50;;;23.60;99.90;;;;;;5079549;28;47110;-77
2022/06/14 14:10:36;;;;;;;4.45;2.60;;;23.90;99.90;;;;;;5039111;27;38940;-78
2022/06/14 14:13:08;;;;;;;3.75;2.22;;;23.20;99.90;;;;;;5109266;27;38211;-78
2022/06/14 14:15:44;;;;;;;6.78;2.35;;;22.90;99.90;;;;;;5067703;28;47055;-77